sensor_id;sensor_type;location;lat;lon;timestamp;P1;durP1;ratioP1;P2;durP2;ratioP2
51854;SDS011;37895;53.240;6.572;2024-03-23T00:53:45;32.95;;;11.02;;
51854;SDS011;37895;53.240;6.572;2024-03-23T00:56:11;25.92;;;10.40;;
51854;SDS011;37895;53.240;6.572;2024-03-23T00:58:37;32.05;;;10.75;;
51854;SDS011;37895;53.240;6.572;2024-03-23T01:01:02;35.65;;;11.13;;
51854;SDS011;37895;53.240;6.572;2024-03-23T01:03:31;31.40;;;10.32;;
51854;SDS011;37895;53.240;6.572;2024-03-23T01:06:00;35.67;;;10.77;;
51854;SDS011;37895;53.240;6.572;2024-03-23T01:08:26;29.55;;;10.00;;
51854;SDS011;37895;53.240;6.572;2024-03-23T01:10:55;28.83;;;10.60;;
51854;SDS011;37895;53.240;6.572;2024-03-23T01:13:21;33.33;;;10.95;;
51854;SDS011;37895;53.240;6.572;2024-03-23T01:15:53;30.35;;;10.07;;
51854;SDS011;37895;53.240;6.572;2024-03-23T01:18:20;33.15;;;10.18;;
51854;SDS011;37895;53.240;6.572;2024-03-23T01:23:12;38.63;;;11.02;;
51854;SDS011;37895;53.240;6.572;2024-03-23T01:25:38;35.10;;;10.48;;
51854;SDS011;37895;53.240;6.572;2024-03-23T01:28:04;39.80;;;10.63;;
51854;SDS011;37895;53.240;6.572;2024-03-23T01:30:31;28.20;;;10.48;;
51854;SDS011;37895;53.240;6.572;2024-03-23T01:32:57;31.35;;;10.85;;
51854;SDS011;37895;53.240;6.572;2024-03-23T01:35:23;30.67;;;10.30;;
51854;SDS011;37895;53.240;6.572;2024-03-23T01:37:48;33.33;;;10.68;;
51854;SDS011;37895;53.240;6.572;2024-03-23T01:40:16;43.15;;;11.80;;
51854;SDS011;37895;53.240;6.572;2024-03-23T01:42:41;28.58;;;10.20;;
51854;SDS011;37895;53.240;6.572;2024-03-23T01:45:07;31.30;;;9.88;;
51854;SDS011;37895;53.240;6.572;2024-03-23T01:47:34;30.88;;;9.82;;
51854;SDS011;37895;53.240;6.572;2024-03-23T01:50:00;34.83;;;10.75;;
51854;SDS011;37895;53.240;6.572;2024-03-23T01:52:26;31.00;;;10.10;;
51854;SDS011;37895;53.240;6.572;2024-03-23T01:54:52;33.55;;;10.23;;
51854;SDS011;37895;53.240;6.572;2024-03-23T01:57:18;32.50;;;9.82;;
51854;SDS011;37895;53.240;6.572;2024-03-23T01:59:48;35.25;;;10.32;;
51854;SDS011;37895;53.240;6.572;2024-03-23T02:02:14;30.33;;;9.63;;
51854;SDS011;37895;53.240;6.572;2024-03-23T02:04:39;30.08;;;10.60;;
51854;SDS011;37895;53.240;6.572;2024-03-23T02:07:08;28.85;;;9.95;;
51854;SDS011;37895;53.240;6.572;2024-03-23T02:09:34;33.03;;;9.55;;
51854;SDS011;37895;53.240;6.572;2024-03-23T02:12:01;29.50;;;9.35;;
51854;SDS011;37895;53.240;6.572;2024-03-23T02:14:28;36.20;;;11.02;;
51854;SDS011;37895;53.240;6.572;2024-03-23T02:16:53;33.17;;;10.50;;
51854;SDS011;37895;53.240;6.572;2024-03-23T02:19:19;33.35;;;10.15;;
51854;SDS011;37895;53.240;6.572;2024-03-23T02:21:44;30.88;;;9.43;;
51854;SDS011;37895;53.240;6.572;2024-03-23T02:24:12;34.03;;;10.40;;
51854;SDS011;37895;53.240;6.572;2024-03-23T02:26:37;27.98;;;9.85;;
51854;SDS011;37895;53.240;6.572;2024-03-23T02:29:03;27.58;;;9.25;;
51854;SDS011;37895;53.240;6.572;2024-03-23T02:31:29;26.17;;;9.68;;
51854;SDS011;37895;53.240;6.572;2024-03-23T02:33:54;34.25;;;10.40;;
51854;SDS011;37895;53.240;6.572;2024-03-23T02:36:20;22.90;;;9.18;;
51854;SDS011;37895;53.240;6.572;2024-03-23T02:38:46;34.40;;;9.70;;
51854;SDS011;37895;53.240;6.572;2024-03-23T02:41:12;26.75;;;9.52;;
51854;SDS011;37895;53.240;6.572;2024-03-23T02:43:38;25.30;;;8.55;;
51854;SDS011;37895;53.240;6.572;2024-03-23T02:46:04;26.08;;;8.23;;
51854;SDS011;37895;53.240;6.572;2024-03-23T02:48:30;31.58;;;9.45;;
51854;SDS011;37895;53.240;6.572;2024-03-23T02:50:55;31.55;;;9.20;;
51854;SDS011;37895;53.240;6.572;2024-03-23T02:53:21;26.90;;;9.80;;
51854;SDS011;37895;53.240;6.572;2024-03-23T02:55:47;28.55;;;8.50;;
51854;SDS011;37895;53.240;6.572;2024-03-23T02:58:12;22.67;;;7.95;;
51854;SDS011;37895;53.240;6.572;2024-03-23T03:00:38;22.55;;;8.23;;
51854;SDS011;37895;53.240;6.572;2024-03-23T03:03:04;23.85;;;8.02;;
51854;SDS011;37895;53.240;6.572;2024-03-23T03:05:29;23.95;;;7.85;;
51854;SDS011;37895;53.240;6.572;2024-03-23T03:07:55;22.67;;;7.45;;
51854;SDS011;37895;53.240;6.572;2024-03-23T03:10:21;24.35;;;8.23;;
51854;SDS011;37895;53.240;6.572;2024-03-23T03:12:46;26.92;;;8.60;;
51854;SDS011;37895;53.240;6.572;2024-03-23T03:15:12;24.27;;;8.75;;
51854;SDS011;37895;53.240;6.572;2024-03-23T03:17:38;20.63;;;7.38;;
51854;SDS011;37895;53.240;6.572;2024-03-23T03:20:04;21.77;;;7.70;;
51854;SDS011;37895;53.240;6.572;2024-03-23T03:22:30;26.42;;;7.15;;
51854;SDS011;37895;53.240;6.572;2024-03-23T03:24:55;21.80;;;7.72;;
51854;SDS011;37895;53.240;6.572;2024-03-23T03:27:21;20.45;;;7.18;;
51854;SDS011;37895;53.240;6.572;2024-03-23T03:29:48;25.85;;;7.78;;
51854;SDS011;37895;53.240;6.572;2024-03-23T03:32:13;23.63;;;8.05;;
51854;SDS011;37895;53.240;6.572;2024-03-23T03:34:39;24.58;;;7.38;;
51854;SDS011;37895;53.240;6.572;2024-03-23T03:37:04;28.17;;;7.93;;
51854;SDS011;37895;53.240;6.572;2024-03-23T03:39:30;26.30;;;8.55;;
51854;SDS011;37895;53.240;6.572;2024-03-23T03:41:56;23.02;;;7.15;;
51854;SDS011;37895;53.240;6.572;2024-03-23T03:44:21;25.65;;;7.40;;
51854;SDS011;37895;53.240;6.572;2024-03-23T03:46:47;22.35;;;7.38;;
51854;SDS011;37895;53.240;6.572;2024-03-23T03:49:12;27.08;;;7.47;;
51854;SDS011;37895;53.240;6.572;2024-03-23T03:51:38;24.00;;;7.15;;
51854;SDS011;37895;53.240;6.572;2024-03-23T03:54:03;22.08;;;7.30;;
51854;SDS011;37895;53.240;6.572;2024-03-23T03:56:29;22.95;;;7.63;;
51854;SDS011;37895;53.240;6.572;2024-03-23T03:58:55;21.75;;;7.00;;
51854;SDS011;37895;53.240;6.572;2024-03-23T04:01:20;18.90;;;6.95;;
51854;SDS011;37895;53.240;6.572;2024-03-23T04:03:46;27.52;;;8.32;;
51854;SDS011;37895;53.240;6.572;2024-03-23T04:06:12;30.35;;;8.05;;
51854;SDS011;37895;53.240;6.572;2024-03-23T04:08:43;18.08;;;7.07;;
51854;SDS011;37895;53.240;6.572;2024-03-23T04:11:08;27.83;;;8.20;;
51854;SDS011;37895;53.240;6.572;2024-03-23T04:13:34;23.10;;;8.32;;
51854;SDS011;37895;53.240;6.572;2024-03-23T04:16:00;28.20;;;8.25;;
51854;SDS011;37895;53.240;6.572;2024-03-23T04:18:25;25.08;;;7.22;;
51854;SDS011;37895;53.240;6.572;2024-03-23T04:20:51;26.63;;;7.38;;
51854;SDS011;37895;53.240;6.572;2024-03-23T04:23:17;24.65;;;7.72;;
51854;SDS011;37895;53.240;6.572;2024-03-23T04:25:42;21.20;;;7.70;;
51854;SDS011;37895;53.240;6.572;2024-03-23T04:28:08;22.52;;;7.38;;
51854;SDS011;37895;53.240;6.572;2024-03-23T04:30:34;19.08;;;7.03;;
51854;SDS011;37895;53.240;6.572;2024-03-23T04:32:59;25.13;;;8.15;;
51854;SDS011;37895;53.240;6.572;2024-03-23T04:37:51;24.02;;;7.53;;
51854;SDS011;37895;53.240;6.572;2024-03-23T04:40:18;22.40;;;7.72;;
51854;SDS011;37895;53.240;6.572;2024-03-23T04:42:43;25.50;;;7.88;;
51854;SDS011;37895;53.240;6.572;2024-03-23T04:45:09;22.73;;;6.95;;
51854;SDS011;37895;53.240;6.572;2024-03-23T04:50:02;22.63;;;7.18;;
51854;SDS011;37895;53.240;6.572;2024-03-23T04:52:28;23.50;;;8.60;;
51854;SDS011;37895;53.240;6.572;2024-03-23T04:54:54;20.63;;;6.70;;
51854;SDS011;37895;53.240;6.572;2024-03-23T04:57:20;25.52;;;7.65;;
51854;SDS011;37895;53.240;6.572;2024-03-23T04:59:45;20.17;;;6.25;;
51854;SDS011;37895;53.240;6.572;2024-03-23T05:02:12;22.02;;;7.07;;
51854;SDS011;37895;53.240;6.572;2024-03-23T05:04:38;23.85;;;7.10;;
51854;SDS011;37895;53.240;6.572;2024-03-23T05:07:03;28.17;;;6.70;;
51854;SDS011;37895;53.240;6.572;2024-03-23T05:09:29;26.98;;;8.38;;
51854;SDS011;37895;53.240;6.572;2024-03-23T05:11:56;21.30;;;6.20;;
51854;SDS011;37895;53.240;6.572;2024-03-23T05:14:22;25.23;;;6.95;;
51854;SDS011;37895;53.240;6.572;2024-03-23T05:16:47;29.77;;;7.47;;
51854;SDS011;37895;53.240;6.572;2024-03-23T05:19:13;19.92;;;7.70;;
51854;SDS011;37895;53.240;6.572;2024-03-23T05:21:39;22.42;;;6.68;;
51854;SDS011;37895;53.240;6.572;2024-03-23T05:24:04;21.55;;;6.80;;
51854;SDS011;37895;53.240;6.572;2024-03-23T05:26:30;15.30;;;7.03;;
51854;SDS011;37895;53.240;6.572;2024-03-23T05:28:56;25.80;;;7.38;;
51854;SDS011;37895;53.240;6.572;2024-03-23T05:31:25;17.88;;;6.75;;
51854;SDS011;37895;53.240;6.572;2024-03-23T05:33:51;21.88;;;6.57;;
51854;SDS011;37895;53.240;6.572;2024-03-23T05:36:17;22.42;;;8.15;;
51854;SDS011;37895;53.240;6.572;2024-03-23T05:38:43;19.05;;;6.18;;
51854;SDS011;37895;53.240;6.572;2024-03-23T05:41:08;20.00;;;6.82;;
51854;SDS011;37895;53.240;6.572;2024-03-23T05:43:34;22.52;;;7.03;;
51854;SDS011;37895;53.240;6.572;2024-03-23T05:46:00;21.35;;;6.68;;
51854;SDS011;37895;53.240;6.572;2024-03-23T05:48:26;24.10;;;6.43;;
51854;SDS011;37895;53.240;6.572;2024-03-23T05:50:53;19.73;;;6.30;;
51854;SDS011;37895;53.240;6.572;2024-03-23T05:53:19;16.52;;;6.18;;
51854;SDS011;37895;53.240;6.572;2024-03-23T05:55:45;19.17;;;6.95;;
51854;SDS011;37895;53.240;6.572;2024-03-23T05:58:12;21.83;;;6.93;;
51854;SDS011;37895;53.240;6.572;2024-03-23T06:00:40;17.20;;;5.95;;
51854;SDS011;37895;53.240;6.572;2024-03-23T06:03:05;24.00;;;6.13;;
51854;SDS011;37895;53.240;6.572;2024-03-23T06:05:31;25.25;;;6.30;;
51854;SDS011;37895;53.240;6.572;2024-03-23T06:07:57;23.58;;;7.18;;
51854;SDS011;37895;53.240;6.572;2024-03-23T06:10:22;18.85;;;6.00;;
51854;SDS011;37895;53.240;6.572;2024-03-23T06:12:48;18.23;;;6.05;;
51854;SDS011;37895;53.240;6.572;2024-03-23T06:15:15;20.15;;;6.18;;
51854;SDS011;37895;53.240;6.572;2024-03-23T06:17:41;18.75;;;5.90;;
51854;SDS011;37895;53.240;6.572;2024-03-23T06:20:06;19.85;;;6.05;;
51854;SDS011;37895;53.240;6.572;2024-03-23T06:22:32;21.70;;;5.90;;
51854;SDS011;37895;53.240;6.572;2024-03-23T06:24:58;17.48;;;5.93;;
51854;SDS011;37895;53.240;6.572;2024-03-23T06:27:24;19.55;;;5.97;;
51854;SDS011;37895;53.240;6.572;2024-03-23T06:29:50;16.20;;;5.40;;
51854;SDS011;37895;53.240;6.572;2024-03-23T06:32:15;15.82;;;5.75;;
51854;SDS011;37895;53.240;6.572;2024-03-23T06:34:41;19.83;;;6.43;;
51854;SDS011;37895;53.240;6.572;2024-03-23T06:37:07;16.90;;;5.45;;
51854;SDS011;37895;53.240;6.572;2024-03-23T06:39:34;14.73;;;5.03;;
51854;SDS011;37895;53.240;6.572;2024-03-23T06:42:00;13.50;;;4.97;;
51854;SDS011;37895;53.240;6.572;2024-03-23T06:44:26;11.88;;;5.03;;
51854;SDS011;37895;53.240;6.572;2024-03-23T06:46:52;14.60;;;5.13;;
51854;SDS011;37895;53.240;6.572;2024-03-23T06:49:17;16.73;;;5.00;;
51854;SDS011;37895;53.240;6.572;2024-03-23T06:51:44;13.18;;;5.50;;
51854;SDS011;37895;53.240;6.572;2024-03-23T06:54:10;14.55;;;4.85;;
51854;SDS011;37895;53.240;6.572;2024-03-23T06:56:36;13.23;;;4.68;;
51854;SDS011;37895;53.240;6.572;2024-03-23T06:59:01;12.75;;;4.95;;
51854;SDS011;37895;53.240;6.572;2024-03-23T07:01:27;17.23;;;5.35;;
51854;SDS011;37895;53.240;6.572;2024-03-23T07:03:53;14.30;;;4.65;;
51854;SDS011;37895;53.240;6.572;2024-03-23T07:06:19;13.82;;;5.18;;
51854;SDS011;37895;53.240;6.572;2024-03-23T07:08:45;13.23;;;5.07;;
51854;SDS011;37895;53.240;6.572;2024-03-23T07:11:11;13.98;;;5.03;;
51854;SDS011;37895;53.240;6.572;2024-03-23T07:13:36;15.32;;;4.80;;
51854;SDS011;37895;53.240;6.572;2024-03-23T07:16:02;11.98;;;5.18;;
51854;SDS011;37895;53.240;6.572;2024-03-23T07:18:28;16.08;;;5.18;;
51854;SDS011;37895;53.240;6.572;2024-03-23T07:20:54;15.05;;;5.20;;
51854;SDS011;37895;53.240;6.572;2024-03-23T07:23:21;15.18;;;4.85;;
51854;SDS011;37895;53.240;6.572;2024-03-23T07:25:56;14.98;;;4.57;;
51854;SDS011;37895;53.240;6.572;2024-03-23T07:28:25;13.43;;;4.93;;
51854;SDS011;37895;53.240;6.572;2024-03-23T07:31:01;14.07;;;4.35;;
51854;SDS011;37895;53.240;6.572;2024-03-23T07:33:26;13.02;;;4.38;;
51854;SDS011;37895;53.240;6.572;2024-03-23T07:35:53;13.20;;;3.92;;
51854;SDS011;37895;53.240;6.572;2024-03-23T07:38:18;11.70;;;4.57;;
51854;SDS011;37895;53.240;6.572;2024-03-23T07:40:45;12.98;;;5.05;;
51854;SDS011;37895;53.240;6.572;2024-03-23T07:43:11;11.18;;;4.55;;
51854;SDS011;37895;53.240;6.572;2024-03-23T07:45:37;9.88;;;4.25;;
51854;SDS011;37895;53.240;6.572;2024-03-23T07:48:03;11.10;;;3.80;;
51854;SDS011;37895;53.240;6.572;2024-03-23T07:50:29;11.88;;;4.28;;
51854;SDS011;37895;53.240;6.572;2024-03-23T07:52:55;9.07;;;4.47;;
51854;SDS011;37895;53.240;6.572;2024-03-23T07:55:20;10.25;;;4.07;;
51854;SDS011;37895;53.240;6.572;2024-03-23T07:57:47;10.27;;;4.50;;
51854;SDS011;37895;53.240;6.572;2024-03-23T08:00:12;11.00;;;4.28;;
51854;SDS011;37895;53.240;6.572;2024-03-23T08:02:38;12.25;;;4.07;;
51854;SDS011;37895;53.240;6.572;2024-03-23T08:05:04;10.10;;;4.05;;
51854;SDS011;37895;53.240;6.572;2024-03-23T08:07:30;9.13;;;3.72;;
51854;SDS011;37895;53.240;6.572;2024-03-23T08:09:55;12.40;;;4.55;;
51854;SDS011;37895;53.240;6.572;2024-03-23T08:12:21;9.95;;;4.05;;
51854;SDS011;37895;53.240;6.572;2024-03-23T08:14:46;8.00;;;3.50;;
51854;SDS011;37895;53.240;6.572;2024-03-23T08:17:12;11.70;;;4.67;;
51854;SDS011;37895;53.240;6.572;2024-03-23T08:19:38;10.00;;;4.20;;
51854;SDS011;37895;53.240;6.572;2024-03-23T08:22:03;9.50;;;4.25;;
51854;SDS011;37895;53.240;6.572;2024-03-23T08:24:29;12.68;;;4.00;;
51854;SDS011;37895;53.240;6.572;2024-03-23T08:26:55;9.73;;;4.03;;
51854;SDS011;37895;53.240;6.572;2024-03-23T08:29:21;11.93;;;4.55;;
51854;SDS011;37895;53.240;6.572;2024-03-23T08:31:46;10.77;;;4.72;;
51854;SDS011;37895;53.240;6.572;2024-03-23T08:34:12;15.00;;;4.90;;
51854;SDS011;37895;53.240;6.572;2024-03-23T08:36:37;10.73;;;4.18;;
51854;SDS011;37895;53.240;6.572;2024-03-23T08:39:03;7.32;;;4.03;;
51854;SDS011;37895;53.240;6.572;2024-03-23T08:41:28;9.48;;;4.25;;
51854;SDS011;37895;53.240;6.572;2024-03-23T08:43:54;9.63;;;4.75;;
51854;SDS011;37895;53.240;6.572;2024-03-23T08:48:46;14.18;;;5.00;;
51854;SDS011;37895;53.240;6.572;2024-03-23T08:51:14;13.52;;;4.95;;
51854;SDS011;37895;53.240;6.572;2024-03-23T08:53:40;12.13;;;4.53;;
51854;SDS011;37895;53.240;6.572;2024-03-23T08:56:07;14.02;;;5.90;;
51854;SDS011;37895;53.240;6.572;2024-03-23T08:58:33;13.80;;;4.85;;
51854;SDS011;37895;53.240;6.572;2024-03-23T09:01:04;12.77;;;5.10;;
51854;SDS011;37895;53.240;6.572;2024-03-23T09:03:39;15.38;;;4.95;;
51854;SDS011;37895;53.240;6.572;2024-03-23T09:06:11;17.92;;;5.20;;
51854;SDS011;37895;53.240;6.572;2024-03-23T09:08:38;13.00;;;5.50;;
51854;SDS011;37895;53.240;6.572;2024-03-23T09:11:06;14.52;;;5.00;;
51854;SDS011;37895;53.240;6.572;2024-03-23T09:13:36;19.02;;;6.15;;
51854;SDS011;37895;53.240;6.572;2024-03-23T09:16:03;13.95;;;5.43;;
51854;SDS011;37895;53.240;6.572;2024-03-23T09:18:31;15.20;;;5.35;;
51854;SDS011;37895;53.240;6.572;2024-03-23T09:20:57;14.50;;;4.97;;
51854;SDS011;37895;53.240;6.572;2024-03-23T09:23:23;12.65;;;5.00;;
51854;SDS011;37895;53.240;6.572;2024-03-23T09:25:49;15.90;;;5.53;;
51854;SDS011;37895;53.240;6.572;2024-03-23T09:28:14;10.95;;;4.30;;
51854;SDS011;37895;53.240;6.572;2024-03-23T09:30:40;13.20;;;4.32;;
51854;SDS011;37895;53.240;6.572;2024-03-23T09:33:09;17.30;;;4.97;;
51854;SDS011;37895;53.240;6.572;2024-03-23T09:35:38;13.20;;;5.32;;
51854;SDS011;37895;53.240;6.572;2024-03-23T09:38:05;15.45;;;4.97;;
51854;SDS011;37895;53.240;6.572;2024-03-23T09:40:32;14.30;;;4.78;;
51854;SDS011;37895;53.240;6.572;2024-03-23T09:42:58;17.02;;;5.85;;
51854;SDS011;37895;53.240;6.572;2024-03-23T09:45:27;16.63;;;5.05;;
51854;SDS011;37895;53.240;6.572;2024-03-23T09:47:57;12.40;;;4.70;;
51854;SDS011;37895;53.240;6.572;2024-03-23T09:50:23;9.43;;;3.63;;
51854;SDS011;37895;53.240;6.572;2024-03-23T09:52:48;9.77;;;3.97;;
51854;SDS011;37895;53.240;6.572;2024-03-23T09:55:14;11.73;;;4.10;;
51854;SDS011;37895;53.240;6.572;2024-03-23T09:57:40;10.70;;;3.85;;
51854;SDS011;37895;53.240;6.572;2024-03-23T10:02:33;9.90;;;3.88;;
51854;SDS011;37895;53.240;6.572;2024-03-23T10:05:00;7.97;;;4.15;;
51854;SDS011;37895;53.240;6.572;2024-03-23T10:07:25;7.40;;;3.28;;
51854;SDS011;37895;53.240;6.572;2024-03-23T10:09:53;9.73;;;4.18;;
51854;SDS011;37895;53.240;6.572;2024-03-23T10:12:19;6.75;;;3.15;;
51854;SDS011;37895;53.240;6.572;2024-03-23T10:14:45;7.82;;;3.67;;
51854;SDS011;37895;53.240;6.572;2024-03-23T10:17:12;8.00;;;3.22;;
51854;SDS011;37895;53.240;6.572;2024-03-23T10:19:49;11.73;;;4.68;;
51854;SDS011;37895;53.240;6.572;2024-03-23T10:22:21;10.25;;;4.25;;
51854;SDS011;37895;53.240;6.572;2024-03-23T10:24:48;9.38;;;4.35;;
51854;SDS011;37895;53.240;6.572;2024-03-23T10:29:40;16.13;;;5.03;;
51854;SDS011;37895;53.240;6.572;2024-03-23T10:32:09;15.63;;;4.88;;
51854;SDS011;37895;53.240;6.572;2024-03-23T10:34:36;14.55;;;5.10;;
51854;SDS011;37895;53.240;6.572;2024-03-23T10:37:02;12.40;;;4.40;;
51854;SDS011;37895;53.240;6.572;2024-03-23T10:39:35;14.88;;;5.38;;
51854;SDS011;37895;53.240;6.572;2024-03-23T10:42:03;15.50;;;5.45;;
51854;SDS011;37895;53.240;6.572;2024-03-23T10:44:30;14.90;;;4.72;;
51854;SDS011;37895;53.240;6.572;2024-03-23T10:49:29;14.88;;;4.95;;
51854;SDS011;37895;53.240;6.572;2024-03-23T10:51:57;15.10;;;5.53;;
51854;SDS011;37895;53.240;6.572;2024-03-23T10:54:30;18.15;;;5.80;;
51854;SDS011;37895;53.240;6.572;2024-03-23T10:56:57;13.07;;;4.20;;
51854;SDS011;37895;53.240;6.572;2024-03-23T10:59:28;14.05;;;4.80;;
51854;SDS011;37895;53.240;6.572;2024-03-23T11:01:56;13.40;;;4.10;;
51854;SDS011;37895;53.240;6.572;2024-03-23T11:09:52;14.35;;;4.25;;
51854;SDS011;37895;53.240;6.572;2024-03-23T11:15:00;12.52;;;5.15;;
51854;SDS011;37895;53.240;6.572;2024-03-23T11:17:29;31.38;;;8.10;;
51854;SDS011;37895;53.240;6.572;2024-03-23T11:20:05;19.30;;;7.72;;
51854;SDS011;37895;53.240;6.572;2024-03-23T11:25:14;12.43;;;4.32;;
51854;SDS011;37895;53.240;6.572;2024-03-23T11:27:48;15.65;;;4.95;;
51854;SDS011;37895;53.240;6.572;2024-03-23T11:30:22;11.63;;;4.35;;
51854;SDS011;37895;53.240;6.572;2024-03-23T11:32:52;15.15;;;5.97;;
51854;SDS011;37895;53.240;6.572;2024-03-23T11:35:28;12.35;;;4.97;;
51854;SDS011;37895;53.240;6.572;2024-03-23T11:38:03;21.98;;;6.65;;
51854;SDS011;37895;53.240;6.572;2024-03-23T11:40:48;12.32;;;4.93;;
51854;SDS011;37895;53.240;6.572;2024-03-23T11:43:15;14.27;;;5.10;;
51854;SDS011;37895;53.240;6.572;2024-03-23T11:45:45;9.73;;;4.25;;
51854;SDS011;37895;53.240;6.572;2024-03-23T11:48:22;16.73;;;6.13;;
51854;SDS011;37895;53.240;6.572;2024-03-23T11:50:56;15.73;;;5.28;;
51854;SDS011;37895;53.240;6.572;2024-03-23T11:53:23;18.95;;;5.88;;
51854;SDS011;37895;53.240;6.572;2024-03-23T11:58:17;14.68;;;5.60;;
51854;SDS011;37895;53.240;6.572;2024-03-23T12:03:27;15.15;;;5.18;;
51854;SDS011;37895;53.240;6.572;2024-03-23T12:05:58;16.45;;;5.45;;
51854;SDS011;37895;53.240;6.572;2024-03-23T12:08:30;13.95;;;5.03;;
51854;SDS011;37895;53.240;6.572;2024-03-23T12:11:13;10.80;;;4.72;;
51854;SDS011;37895;53.240;6.572;2024-03-23T12:13:40;14.43;;;6.25;;
51854;SDS011;37895;53.240;6.572;2024-03-23T12:18:46;13.35;;;5.20;;
51854;SDS011;37895;53.240;6.572;2024-03-23T12:21:14;30.45;;;9.63;;
51854;SDS011;37895;53.240;6.572;2024-03-23T12:23:39;13.77;;;4.88;;
51854;SDS011;37895;53.240;6.572;2024-03-23T12:26:05;14.05;;;4.93;;
51854;SDS011;37895;53.240;6.572;2024-03-23T12:28:32;12.18;;;4.15;;
51854;SDS011;37895;53.240;6.572;2024-03-23T12:30:57;8.48;;;4.07;;
51854;SDS011;37895;53.240;6.572;2024-03-23T12:33:23;11.85;;;4.10;;
51854;SDS011;37895;53.240;6.572;2024-03-23T12:35:52;11.35;;;3.80;;
51854;SDS011;37895;53.240;6.572;2024-03-23T12:38:18;10.80;;;4.20;;
51854;SDS011;37895;53.240;6.572;2024-03-23T12:40:47;8.07;;;3.88;;
51854;SDS011;37895;53.240;6.572;2024-03-23T12:43:13;11.18;;;4.75;;
51854;SDS011;37895;53.240;6.572;2024-03-23T12:45:39;15.75;;;6.50;;
51854;SDS011;37895;53.240;6.572;2024-03-23T12:48:05;15.07;;;5.75;;
51854;SDS011;37895;53.240;6.572;2024-03-23T12:50:31;12.50;;;4.90;;
51854;SDS011;37895;53.240;6.572;2024-03-23T12:52:57;10.88;;;4.32;;
51854;SDS011;37895;53.240;6.572;2024-03-23T12:55:23;10.95;;;3.72;;
51854;SDS011;37895;53.240;6.572;2024-03-23T12:57:48;13.20;;;4.20;;
51854;SDS011;37895;53.240;6.572;2024-03-23T13:00:14;10.15;;;3.70;;
51854;SDS011;37895;53.240;6.572;2024-03-23T13:02:41;9.73;;;3.88;;
51854;SDS011;37895;53.240;6.572;2024-03-23T13:05:07;11.32;;;4.15;;
51854;SDS011;37895;53.240;6.572;2024-03-23T13:07:34;8.88;;;3.92;;
51854;SDS011;37895;53.240;6.572;2024-03-23T13:12:26;8.50;;;3.83;;
51854;SDS011;37895;53.240;6.572;2024-03-23T13:14:51;14.35;;;4.53;;
51854;SDS011;37895;53.240;6.572;2024-03-23T13:19:43;16.95;;;6.80;;
51854;SDS011;37895;53.240;6.572;2024-03-23T13:22:09;11.82;;;4.50;;
51854;SDS011;37895;53.240;6.572;2024-03-23T13:24:38;16.27;;;5.43;;
51854;SDS011;37895;53.240;6.572;2024-03-23T13:27:04;18.52;;;6.10;;
51854;SDS011;37895;53.240;6.572;2024-03-23T13:29:33;16.38;;;5.35;;
51854;SDS011;37895;53.240;6.572;2024-03-23T13:32:00;18.75;;;5.80;;
51854;SDS011;37895;53.240;6.572;2024-03-23T13:34:25;25.90;;;7.65;;
51854;SDS011;37895;53.240;6.572;2024-03-23T13:36:51;17.90;;;6.53;;
51854;SDS011;37895;53.240;6.572;2024-03-23T13:39:17;12.07;;;4.50;;
51854;SDS011;37895;53.240;6.572;2024-03-23T13:41:43;16.88;;;4.60;;
51854;SDS011;37895;53.240;6.572;2024-03-23T13:44:13;11.65;;;4.38;;
51854;SDS011;37895;53.240;6.572;2024-03-23T13:46:42;9.30;;;3.75;;
51854;SDS011;37895;53.240;6.572;2024-03-23T13:51:50;10.77;;;4.10;;
51854;SDS011;37895;53.240;6.572;2024-03-23T13:54:15;13.43;;;4.60;;
51854;SDS011;37895;53.240;6.572;2024-03-23T13:56:41;14.18;;;6.43;;
51854;SDS011;37895;53.240;6.572;2024-03-23T13:59:07;6.95;;;3.67;;
51854;SDS011;37895;53.240;6.572;2024-03-23T14:01:32;10.43;;;4.40;;
51854;SDS011;37895;53.240;6.572;2024-03-23T14:03:58;12.15;;;4.70;;
51854;SDS011;37895;53.240;6.572;2024-03-23T14:06:24;9.30;;;4.10;;
51854;SDS011;37895;53.240;6.572;2024-03-23T14:08:49;6.80;;;3.22;;
51854;SDS011;37895;53.240;6.572;2024-03-23T14:11:15;9.02;;;3.80;;
51854;SDS011;37895;53.240;6.572;2024-03-23T14:13:43;11.23;;;4.32;;
51854;SDS011;37895;53.240;6.572;2024-03-23T14:16:09;15.00;;;5.03;;
51854;SDS011;37895;53.240;6.572;2024-03-23T14:18:35;9.80;;;4.60;;
51854;SDS011;37895;53.240;6.572;2024-03-23T14:21:00;9.90;;;4.32;;
51854;SDS011;37895;53.240;6.572;2024-03-23T14:23:26;8.85;;;3.38;;
51854;SDS011;37895;53.240;6.572;2024-03-23T14:25:54;13.18;;;5.55;;
51854;SDS011;37895;53.240;6.572;2024-03-23T14:28:21;12.80;;;4.90;;
51854;SDS011;37895;53.240;6.572;2024-03-23T14:30:47;12.93;;;4.68;;
51854;SDS011;37895;53.240;6.572;2024-03-23T14:33:14;12.15;;;4.40;;
51854;SDS011;37895;53.240;6.572;2024-03-23T14:35:40;12.20;;;5.38;;
51854;SDS011;37895;53.240;6.572;2024-03-23T14:38:06;12.90;;;5.07;;
51854;SDS011;37895;53.240;6.572;2024-03-23T14:42:58;17.05;;;5.47;;
51854;SDS011;37895;53.240;6.572;2024-03-23T14:45:23;13.52;;;4.90;;
51854;SDS011;37895;53.240;6.572;2024-03-23T14:47:52;13.35;;;5.15;;
51854;SDS011;37895;53.240;6.572;2024-03-23T14:50:18;12.98;;;5.13;;
51854;SDS011;37895;53.240;6.572;2024-03-23T14:52:44;12.88;;;5.20;;
51854;SDS011;37895;53.240;6.572;2024-03-23T14:55:11;9.32;;;3.78;;
51854;SDS011;37895;53.240;6.572;2024-03-23T14:57:37;14.43;;;5.20;;
51854;SDS011;37895;53.240;6.572;2024-03-23T15:00:05;17.08;;;4.45;;
51854;SDS011;37895;53.240;6.572;2024-03-23T15:02:36;11.20;;;4.55;;
51854;SDS011;37895;53.240;6.572;2024-03-23T15:05:02;10.25;;;4.18;;
51854;SDS011;37895;53.240;6.572;2024-03-23T15:07:29;13.70;;;4.63;;
51854;SDS011;37895;53.240;6.572;2024-03-23T15:09:58;15.43;;;5.03;;
51854;SDS011;37895;53.240;6.572;2024-03-23T15:12:23;12.68;;;4.28;;
51854;SDS011;37895;53.240;6.572;2024-03-23T15:14:49;13.85;;;5.50;;
51854;SDS011;37895;53.240;6.572;2024-03-23T15:17:15;9.75;;;4.07;;
51854;SDS011;37895;53.240;6.572;2024-03-23T15:19:40;9.75;;;3.40;;
51854;SDS011;37895;53.240;6.572;2024-03-23T15:22:07;11.45;;;3.88;;
51854;SDS011;37895;53.240;6.572;2024-03-23T15:24:34;10.23;;;3.97;;
51854;SDS011;37895;53.240;6.572;2024-03-23T15:27:02;13.50;;;4.40;;
51854;SDS011;37895;53.240;6.572;2024-03-23T15:29:28;9.82;;;3.75;;
51854;SDS011;37895;53.240;6.572;2024-03-23T15:31:54;10.73;;;3.80;;
51854;SDS011;37895;53.240;6.572;2024-03-23T15:36:47;12.77;;;4.07;;
51854;SDS011;37895;53.240;6.572;2024-03-23T15:39:14;10.70;;;4.22;;
51854;SDS011;37895;53.240;6.572;2024-03-23T15:41:40;10.57;;;4.50;;
51854;SDS011;37895;53.240;6.572;2024-03-23T15:44:05;11.13;;;4.40;;
51854;SDS011;37895;53.240;6.572;2024-03-23T15:46:31;15.23;;;4.68;;
51854;SDS011;37895;53.240;6.572;2024-03-23T15:48:57;14.98;;;4.70;;
51854;SDS011;37895;53.240;6.572;2024-03-23T15:51:22;10.82;;;4.68;;
51854;SDS011;37895;53.240;6.572;2024-03-23T15:53:48;13.35;;;4.57;;
51854;SDS011;37895;53.240;6.572;2024-03-23T15:56:17;14.98;;;4.38;;
51854;SDS011;37895;53.240;6.572;2024-03-23T15:58:43;12.65;;;4.32;;
51854;SDS011;37895;53.240;6.572;2024-03-23T16:01:09;11.27;;;4.32;;
51854;SDS011;37895;53.240;6.572;2024-03-23T16:03:35;14.35;;;4.25;;
51854;SDS011;37895;53.240;6.572;2024-03-23T16:06:03;16.17;;;4.50;;
51854;SDS011;37895;53.240;6.572;2024-03-23T16:08:30;12.68;;;4.68;;
51854;SDS011;37895;53.240;6.572;2024-03-23T16:10:59;11.55;;;3.88;;
51854;SDS011;37895;53.240;6.572;2024-03-23T16:13:26;14.32;;;4.75;;